Time;durP1;ratioP1;P1;durP2;ratioP2;P2;SDS_P1;SDS_P2;PMS_P1;PMS_P2;Temp;Humidity;BMP_temperature;BMP_pressure;BME280_temperature;BME280_humidity;BME280_pressure;Samples;Min_cycle;Max_cycle;Signal;HPM_P1;HPM_P2
2021/04/05 00:01:31;;;;;;;;;;;;;;;21.56;34.65;101381.38;2207768;39;115979;-58
2021/04/05 00:03:03;;;;;;;;;;;;;;;21.56;34.88;101378.56;2201745;39;115907;-60
2021/04/05 00:04:34;;;;;;;;;;;;;;;21.57;34.63;101373.78;2201550;39;115601;-57
2021/04/05 00:06:08;;;;;;;;;;;;;;;21.57;34.94;101371.81;2207085;39;115381;-57
2021/04/05 00:07:42;;;;;;;;;;;;;;;21.56;34.73;101372.94;2209563;39;116296;-58
2021/04/05 00:09:14;;;;;;;;;;;;;;;21.57;35.09;101373.78;2208715;39;113605;-60
2021/04/05 00:10:48;;;;;;;;;;;;;;;21.56;34.86;101381.38;2208687;39;114057;-58
2021/04/05 00:12:20;;;;;;;;;;;;;;;21.55;34.88;101378.88;2206828;39;113906;-59
2021/04/05 00:13:52;;;;;;;;;;;;;;;21.55;35.02;101382.50;2202952;39;114022;-58
2021/04/05 00:15:23;;;;;;;;;;;;;;;21.54;35.13;101380.84;2201822;39;114074;-57
2021/04/05 00:16:54;;;;;;;;;;;;;;;21.55;35.12;101381.69;2205303;39;113836;-58
2021/04/05 00:18:27;;;;;;;;;;;;;;;21.53;35.17;101378.34;2208203;39;113771;-57
2021/04/05 00:19:58;;;;;;;;;;;;;;;21.55;35.39;101376.06;2201542;39;114039;-58
2021/04/05 00:21:29;;;;;;;;;;;;;;;21.53;35.28;101372.72;2207203;39;113685;-59
2021/04/05 00:23:01;;;;;;;;;;;;;;;21.52;35.47;101371.88;2208654;39;113777;-58
2021/04/05 00:24:32;;;;;;;;;;;;;;;21.51;35.39;101367.41;2208781;39;113653;-59
2021/04/05 00:26:04;;;;;;;;;;;;;;;21.50;35.41;101360.09;2209402;39;113727;-57
2021/04/05 00:27:36;;;;;;;;;;;;;;;21.49;35.19;101369.66;2205479;39;113946;-60
2021/04/05 00:29:08;;;;;;;;;;;;;;;21.49;35.34;101358.41;2208819;39;114028;-59
2021/04/05 00:30:39;;;;;;;;;;;;;;;21.48;35.77;101355.94;2208542;39;115076;-59
2021/04/05 00:32:11;;;;;;;;;;;;;;;21.48;35.50;101362.41;2201032;39;114808;-57
2021/04/05 00:33:43;;;;;;;;;;;;;;;21.49;35.70;101354.75;2203476;39;115039;-60
2021/04/05 00:35:17;;;;;;;;;;;;;;;21.47;35.88;101355.09;2201868;39;115730;-58
2021/04/05 00:36:49;;;;;;;;;;;;;;;21.48;35.74;101347.50;2200671;39;115464;-60
2021/04/05 00:38:21;;;;;;;;;;;;;;;21.46;35.80;101342.16;2206251;39;114963;-57
2021/04/05 00:39:53;;;;;;;;;;;;;;;21.47;36.11;101338.22;2207337;39;113882;-60
2021/04/05 00:41:25;;;;;;;;;;;;;;;21.47;35.97;101340.19;2208310;39;114748;-58
2021/04/05 00:42:57;;;;;;;;;;;;;;;21.47;35.95;101343.00;2209084;39;114810;-60
2021/04/05 00:44:30;;;;;;;;;;;;;;;21.44;36.11;101330.38;2207904;39;115525;-57
2021/04/05 00:46:02;;;;;;;;;;;;;;;21.45;35.78;101323.63;2202609;39;114609;-60
2021/04/05 00:47:36;;;;;;;;;;;;;;;21.45;35.51;101323.63;2205988;39;115031;-59
2021/04/05 00:49:07;;;;;;;;;;;;;;;21.44;35.91;101313.50;2208919;39;115399;-58
2021/04/05 00:50:40;;;;;;;;;;;;;;;21.42;35.99;101318.63;2204793;39;114733;-57
2021/04/05 00:52:12;;;;;;;;;;;;;;;21.43;35.89;101322.28;2206738;39;114844;-58
2021/04/05 00:53:45;;;;;;;;;;;;;;;21.44;36.17;101313.50;2207158;39;115017;-57
2021/04/05 00:55:18;;;;;;;;;;;;;;;21.38;36.27;101314.75;2199619;39;115610;-58
2021/04/05 00:56:50;;;;;;;;;;;;;;;21.41;35.85;101318.91;2202928;39;115705;-58
2021/04/05 00:58:22;;;;;;;;;;;;;;;21.39;35.97;101310.81;2208879;39;115722;-57
2021/04/05 00:59:54;;;;;;;;;;;;;;;21.37;36.37;101310.28;2208796;39;115622;-61
2021/04/05 01:01:26;;;;;;;;;;;;;;;21.40;35.97;101314.44;2209695;39;115432;-58
2021/04/05 01:02:58;;;;;;;;;;;;;;;21.39;36.25;101304.34;2203185;39;116045;-57
2021/04/05 01:04:30;;;;;;;;;;;;;;;21.37;36.45;101301.84;2209004;39;115591;-56
2021/04/05 01:06:04;;;;;;;;;;;;;;;21.36;36.21;101308.59;2207402;39;115621;-59
2021/04/05 01:07:36;;;;;;;;;;;;;;;21.35;36.31;101292.06;2208476;39;115703;-57
2021/04/05 01:09:07;;;;;;;;;;;;;;;21.34;36.73;101288.41;2200633;39;115646;-57
2021/04/05 01:10:39;;;;;;;;;;;;;;;21.32;36.67;101290.66;2205681;39;115514;-59
2021/04/05 01:12:10;;;;;;;;;;;;;;;21.33;36.46;101288.69;2201363;39;115581;-59
2021/04/05 01:13:42;;;;;;;;;;;;;;;21.30;36.77;101284.53;2206262;39;113669;-58
2021/04/05 01:15:15;;;;;;;;;;;;;;;21.32;36.42;101289.84;2200678;39;113695;-57
2021/04/05 01:16:50;;;;;;;;;;;;;;;21.30;36.50;101270.47;2205741;39;113729;-57
2021/04/05 01:18:22;;;;;;;;;;;;;;;21.30;36.69;101276.09;2205753;39;114381;-58
2021/04/05 01:19:53;;;;;;;;;;;;;;;21.29;36.61;101272.47;2208686;39;114108;-61
2021/04/05 01:21:25;;;;;;;;;;;;;;;21.30;36.78;101276.09;2206236;39;113785;-61
2021/04/05 01:22:56;;;;;;;;;;;;;;;21.29;36.94;101257.56;2201791;39;114166;-58
2021/04/05 01:24:29;;;;;;;;;;;;;;;21.26;36.83;101264.63;2203883;39;113694;-60
2021/04/05 01:26:00;;;;;;;;;;;;;;;21.26;36.80;101258.16;2207930;39;114226;-58
2021/04/05 01:27:32;;;;;;;;;;;;;;;21.23;36.87;101254.00;2199915;39;113718;-58
2021/04/05 01:29:03;;;;;;;;;;;;;;;21.23;37.17;101258.78;2205801;39;113951;-59
2021/04/05 01:30:36;;;;;;;;;;;;;;;21.25;36.67;101259.31;2205052;39;113953;-58
2021/04/05 01:32:07;;;;;;;;;;;;;;;21.26;36.95;101261.81;2205260;39;114034;-58
2021/04/05 01:33:40;;;;;;;;;;;;;;;21.22;36.88;101246.69;2206701;39;113788;-61
2021/04/05 01:35:12;;;;;;;;;;;;;;;21.23;37.04;101245.56;2203841;39;113968;-61
2021/04/05 01:36:43;;;;;;;;;;;;;;;21.22;37.23;101243.88;2204723;39;115451;-57
2021/04/05 01:38:15;;;;;;;;;;;;;;;21.22;37.01;101252.31;2199914;39;114802;-59
2021/04/05 01:39:47;;;;;;;;;;;;;;;21.22;37.53;101245.84;2203019;39;114845;-60
2021/04/05 01:41:21;;;;;;;;;;;;;;;21.24;37.12;101243.59;2203586;39;114729;-57
2021/04/05 01:42:53;;;;;;;;;;;;;;;21.22;37.37;101235.47;2199186;39;115047;-60
2021/04/05 01:44:26;;;;;;;;;;;;;;;21.21;37.20;101245.03;2205099;39;114650;-58
2021/04/05 01:45:59;;;;;;;;;;;;;;;21.19;37.25;101241.69;2203304;39;114342;-59
2021/04/05 01:47:31;;;;;;;;;;;;;;;21.20;37.40;101242.53;2199974;39;115021;-60
2021/04/05 01:49:04;;;;;;;;;;;;;;;21.21;37.42;101244.22;2206729;39;114820;-60
2021/04/05 01:50:35;;;;;;;;;;;;;;;21.21;37.54;101242.22;2209502;39;114752;-57
2021/04/05 01:52:10;;;;;;;;;;;;;;;21.21;37.79;101238.59;2198571;39;114788;-58
2021/04/05 01:53:43;;;;;;;;;;;;;;;21.23;37.59;101241.91;2206651;39;114746;-58
2021/04/05 01:55:14;;;;;;;;;;;;;;;21.23;37.34;101242.75;2191507;39;114296;-59
2021/04/05 01:56:46;;;;;;;;;;;;;;;21.22;37.71;101240.25;2203980;39;114428;-57
2021/04/05 01:58:18;;;;;;;;;;;;;;;21.22;37.33;101241.06;2203098;39;115682;-60
2021/04/05 01:59:50;;;;;;;;;;;;;;;21.23;37.51;101236.28;2197868;39;116132;-57
2021/04/05 02:01:23;;;;;;;;;;;;;;;21.21;37.77;101247.03;2202895;39;115619;-57
2021/04/05 02:02:56;;;;;;;;;;;;;;;21.21;37.33;101249.84;2205000;39;115571;-58
2021/04/05 02:04:28;;;;;;;;;;;;;;;21.22;37.52;101240.25;2203759;39;115813;-60
2021/04/05 02:06:01;;;;;;;;;;;;;;;21.20;37.85;101251.81;2200437;39;115728;-58
2021/04/05 02:07:34;;;;;;;;;;;;;;;21.21;37.41;101245.03;2198090;39;115600;-59
2021/04/05 02:09:07;;;;;;;;;;;;;;;21.20;37.71;101248.16;2198893;39;115558;-58
2021/04/05 02:10:39;;;;;;;;;;;;;;;21.20;37.84;101240.56;2198770;39;115759;-60
2021/04/05 02:12:10;;;;;;;;;;;;;;;21.21;37.51;101230.16;2198087;39;115496;-56
2021/04/05 02:13:44;;;;;;;;;;;;;;;21.20;37.79;101232.13;2198612;39;115582;-59
2021/04/05 02:15:16;;;;;;;;;;;;;;;21.20;37.78;101234.09;2204039;39;115981;-58
2021/04/05 02:16:48;;;;;;;;;;;;;;;21.19;37.88;101232.44;2199937;39;115582;-57
2021/04/05 02:18:21;;;;;;;;;;;;;;;21.19;37.59;101226.81;2200077;39;115956;-56
2021/04/05 02:19:52;;;;;;;;;;;;;;;21.19;37.92;101224.00;2195445;39;114216;-59
2021/04/05 02:21:25;;;;;;;;;;;;;;;21.17;38.09;101217.84;2198507;39;113923;-58
2021/04/05 02:22:57;;;;;;;;;;;;;;;21.16;38.11;101217.03;2198641;39;113773;-59
2021/04/05 02:24:28;;;;;;;;;;;;;;;21.16;38.19;101219.00;2197664;39;113631;-57
2021/04/05 02:27:36;;;;;;;;;;;;;;;21.19;38.21;101221.19;2198367;39;114463;-57
2021/04/05 02:29:08;;;;;;;;;;;;;;;21.17;38.17;101217.84;2198797;39;113798;-57
2021/04/05 02:30:39;;;;;;;;;;;;;;;21.17;38.03;101220.66;2198449;39;113971;-58
2021/04/05 02:32:11;;;;;;;;;;;;;;;21.14;38.28;101210.03;2198457;39;113773;-57
2021/04/05 02:33:44;;;;;;;;;;;;;;;21.15;38.14;101206.09;2198662;39;113914;-57
2021/04/05 02:35:16;;;;;;;;;;;;;;;21.13;38.69;101199.94;2196577;39;114022;-58
2021/04/05 02:36:48;;;;;;;;;;;;;;;21.11;38.44;101191.78;2198630;39;113949;-58
2021/04/05 02:38:20;;;;;;;;;;;;;;;21.13;38.56;101192.34;2194456;39;113670;-59
2021/04/05 02:39:51;;;;;;;;;;;;;;;21.10;38.21;101186.47;2199217;39;113756;-57
2021/04/05 02:41:24;;;;;;;;;;;;;;;21.10;38.40;101194.91;2196728;39;114968;-57
2021/04/05 02:42:56;;;;;;;;;;;;;;;21.08;38.33;101198.00;2198575;39;114929;-60
2021/04/05 02:44:29;;;;;;;;;;;;;;;21.07;38.81;101187.09;2198677;39;114829;-59
2021/04/05 02:46:00;;;;;;;;;;;;;;;21.08;38.62;101183.97;2204186;39;115510;-59
2021/04/05 02:47:33;;;;;;;;;;;;;;;21.05;38.21;101192.16;2200089;39;114873;-60
2021/04/05 02:49:06;;;;;;;;;;;;;;;21.05;38.45;101186.56;2203771;39;115128;-60
2021/04/05 02:50:40;;;;;;;;;;;;;;;21.03;38.63;101192.47;2204153;39;114096;-59
2021/04/05 02:52:12;;;;;;;;;;;;;;;21.04;38.41;101187.69;2199335;39;115537;-59
2021/04/05 02:53:46;;;;;;;;;;;;;;;21.03;38.81;101189.66;2204129;39;114920;-59
2021/04/05 02:55:18;;;;;;;;;;;;;;;21.04;38.40;101187.69;2194349;39;114792;-60
2021/04/05 02:56:52;;;;;;;;;;;;;;;21.02;38.56;101187.16;2197427;39;114812;-60
2021/04/05 02:58:24;;;;;;;;;;;;;;;21.01;38.89;101183.53;2196538;39;114840;-60
2021/04/05 02:59:55;;;;;;;;;;;;;;;21.01;38.60;101191.13;2198083;39;114859;-58
2021/04/05 03:01:27;;;;;;;;;;;;;;;21.00;38.58;101173.41;2201259;39;115906;-58
2021/04/05 03:02:59;;;;;;;;;;;;;;;21.00;38.55;101183.81;2198164;39;115941;-57
2021/04/05 03:04:31;;;;;;;;;;;;;;;21.00;38.46;101165.00;2197532;39;115604;-60
2021/04/05 03:06:04;;;;;;;;;;;;;;;21.02;38.56;101188.00;2197726;39;115033;-58
2021/04/05 03:07:37;;;;;;;;;;;;;;;20.99;38.40;101173.72;2197954;39;115595;-58
2021/04/05 03:09:09;;;;;;;;;;;;;;;21.01;38.50;101174.25;2198200;39;114366;-58
2021/04/05 03:10:41;;;;;;;;;;;;;;;20.98;38.91;101181.34;2194052;39;115892;-59
2021/04/05 03:12:13;;;;;;;;;;;;;;;20.98;38.57;101164.47;2197722;39;115851;-57
2021/04/05 03:13:47;;;;;;;;;;;;;;;21.00;38.55;101166.97;2199216;39;115738;-60
2021/04/05 03:15:18;;;;;;;;;;;;;;;20.98;38.79;101172.91;2198481;39;115794;-59
2021/04/05 03:16:52;;;;;;;;;;;;;;;20.98;38.44;101172.06;2198592;39;115586;-59
2021/04/05 03:18:26;;;;;;;;;;;;;;;20.99;38.80;101171.75;2198509;39;115642;-59
2021/04/05 03:19:59;;;;;;;;;;;;;;;20.98;38.59;101174.88;2197970;39;115499;-59
2021/04/05 03:21:32;;;;;;;;;;;;;;;20.99;38.55;101166.13;2194872;39;114199;-58
2021/04/05 03:23:04;;;;;;;;;;;;;;;20.97;38.55;101164.78;2198162;39;115797;-57
2021/04/05 03:24:36;;;;;;;;;;;;;;;20.96;38.71;101163.94;2199759;39;116050;-57
2021/04/05 03:26:07;;;;;;;;;;;;;;;20.97;38.80;101159.16;2197692;39;114459;-56
2021/04/05 03:27:39;;;;;;;;;;;;;;;20.95;38.90;101162.25;2204050;39;113858;-57
2021/04/05 03:29:14;;;;;;;;;;;;;;;20.94;38.96;101160.59;2200256;39;113981;-58
2021/04/05 03:30:48;;;;;;;;;;;;;;;20.95;38.68;101153.84;2198173;39;113985;-59
2021/04/05 03:32:21;;;;;;;;;;;;;;;20.97;38.62;101164.78;2194090;39;113933;-59
2021/04/05 03:34:20;;;;;;;;;;;;;;;20.96;38.72;101158.31;2201222;39;113710;-57
2021/04/05 03:35:55;;;;;;;;;;;;;;;20.95;39.07;101158.63;2195527;39;113804;-56
2021/04/05 03:37:30;;;;;;;;;;;;;;;20.94;38.89;101148.56;2197997;39;114096;-58
2021/04/05 03:39:05;;;;;;;;;;;;;;;20.92;39.17;101151.66;2201539;39;113878;-58
2021/04/05 03:40:38;;;;;;;;;;;;;;;20.94;39.01;101142.94;2198429;39;114955;-59
2021/04/05 03:42:14;;;;;;;;;;;;;;;20.92;38.78;101143.22;2198234;39;113796;-58
2021/04/05 03:44:06;;;;;;;;;;;;;;;20.92;39.01;101148.84;2201811;39;113605;-57
2021/04/05 03:45:43;;;;;;;;;;;;;;;20.90;38.88;101144.66;2195885;39;113898;-58
2021/04/05 03:47:24;;;;;;;;;;;;;;;20.92;39.01;101148.00;2204183;39;114083;-57
2021/04/05 03:49:04;;;;;;;;;;;;;;;20.91;38.84;101140.72;2198100;39;115068;-59
2021/04/05 03:50:44;;;;;;;;;;;;;;;20.89;39.21;101143.00;2198409;39;115227;-56
2021/04/05 03:52:25;;;;;;;;;;;;;;;20.86;39.39;101139.66;2195141;39;114737;-59
2021/04/05 03:54:01;;;;;;;;;;;;;;;20.84;39.37;101139.16;2195077;39;114809;-57
2021/04/05 03:55:32;;;;;;;;;;;;;;;20.88;39.23;101139.38;2197098;39;114681;-58
2021/04/05 03:57:04;;;;;;;;;;;;;;;20.86;39.60;101144.44;2192701;39;114699;-58
2021/04/05 03:58:36;;;;;;;;;;;;;;;20.85;39.45;101139.97;2197402;39;114300;-58
2021/04/05 04:00:10;;;;;;;;;;;;;;;20.86;39.27;101133.22;2197668;39;114826;-58
2021/04/05 04:01:45;;;;;;;;;;;;;;;20.86;39.23;101130.41;2194871;39;114712;-59
2021/04/05 04:03:18;;;;;;;;;;;;;;;20.85;39.44;101129.56;2197210;39;115314;-57
2021/04/05 04:05:01;;;;;;;;;;;;;;;20.86;39.35;101124.78;2195391;39;114749;-58
2021/04/05 04:06:40;;;;;;;;;;;;;;;20.84;39.17;101129.88;2196139;39;115846;-59
2021/04/05 04:08:21;;;;;;;;;;;;;;;20.83;39.41;101131.03;2190295;39;115134;-59
2021/04/05 04:09:54;;;;;;;;;;;;;;;20.84;39.60;101125.09;2198860;39;114798;-57
2021/04/05 04:11:27;;;;;;;;;;;;;;;20.86;39.42;101124.78;2198393;39;115567;-58
2021/04/05 04:12:59;;;;;;;;;;;;;;;20.83;39.88;101131.03;2197607;39;115479;-59
2021/04/05 04:14:31;;;;;;;;;;;;;;;20.82;39.63;101132.16;2198165;39;115507;-56
2021/04/05 04:16:03;;;;;;;;;;;;;;;20.82;39.73;101130.19;2198067;39;115434;-57
2021/04/05 04:17:36;;;;;;;;;;;;;;;20.82;39.95;101133.00;2198203;39;115985;-58
2021/04/05 04:19:07;;;;;;;;;;;;;;;20.82;39.62;101126.53;2198154;39;114612;-57
2021/04/05 04:20:38;;;;;;;;;;;;;;;20.82;39.93;101127.38;2198432;39;115487;-60
2021/04/05 04:22:12;;;;;;;;;;;;;;;20.81;39.52;101122.88;2196728;39;115536;-58
2021/04/05 04:23:44;;;;;;;;;;;;;;;20.81;39.46;101117.28;2197961;39;115776;-60
2021/04/05 04:25:15;;;;;;;;;;;;;;;20.81;39.74;101116.44;2198301;39;115231;-59
2021/04/05 04:26:47;;;;;;;;;;;;;;;20.80;39.17;101117.59;2198123;39;115488;-58
2021/04/05 04:28:18;;;;;;;;;;;;;;;20.79;39.60;101113.13;2198261;39;116037;-58
2021/04/05 04:29:53;;;;;;;;;;;;;;;20.80;39.30;101111.97;2197951;39;115470;-56
2021/04/05 04:31:24;;;;;;;;;;;;;;;20.86;39.74;101116.34;2200255;39;115538;-57
2021/04/05 04:32:55;;;;;;;;;;;;;;;20.90;39.60;101113.75;2197421;39;113686;-58
2021/04/05 04:34:26;;;;;;;;;;;;;;;20.95;39.88;101124.91;2198004;39;113907;-58
2021/04/05 04:35:58;;;;;;;;;;;;;;;20.96;39.62;101118.16;2194971;39;113547;-58
2021/04/05 04:37:29;;;;;;;;;;;;;;;20.97;39.83;101128.25;2197971;39;114220;-57
2021/04/05 04:39:00;;;;;;;;;;;;;;;20.98;40.14;101122.34;2198121;39;113826;-58
2021/04/05 04:40:33;;;;;;;;;;;;;;;21.00;39.75;101120.03;2198504;39;113845;-60
2021/04/05 04:42:04;;;;;;;;;;;;;;;21.03;40.09;101118.63;2198208;39;113743;-57
2021/04/05 04:43:35;;;;;;;;;;;;;;;21.06;40.06;101120.81;2197540;39;113748;-59
2021/04/05 04:45:07;;;;;;;;;;;;;;;21.08;40.07;101110.91;2195063;39;113774;-57
2021/04/05 04:46:38;;;;;;;;;;;;;;;21.13;40.13;101119.28;2198047;39;113717;-58
2021/04/05 04:48:10;;;;;;;;;;;;;;;21.17;39.83;101127.91;2197209;39;113864;-58
2021/04/05 04:49:41;;;;;;;;;;;;;;;21.21;40.16;101123.38;2197913;39;114135;-59
2021/04/05 04:51:12;;;;;;;;;;;;;;;21.26;39.82;101118.47;2198301;39;113827;-58
2021/04/05 04:52:43;;;;;;;;;;;;;;;21.30;39.79;101119.53;2203386;39;113665;-59
2021/04/05 04:54:14;;;;;;;;;;;;;;;21.37;39.76;101118.28;2199797;39;113677;-59
2021/04/05 04:55:45;;;;;;;;;;;;;;;21.41;39.56;101128.59;2200381;39;114819;-59
2021/04/05 04:57:17;;;;;;;;;;;;;;;21.47;39.77;101132.16;2199767;39;114860;-57
2021/04/05 04:58:48;;;;;;;;;;;;;;;21.51;39.34;101130.41;2197298;39;114700;-58
2021/04/05 05:00:20;;;;;;;;;;;;;;;21.56;39.62;101141.53;2192750;39;114712;-57
2021/04/05 05:01:52;;;;;;;;;;;;;;;21.61;39.78;101145.09;2197071;39;114786;-59
2021/04/05 05:03:24;;;;;;;;;;;;;;;21.66;39.70;101150.63;2198244;39;115144;-59
2021/04/05 05:04:56;;;;;;;;;;;;;;;21.71;39.49;101153.31;2200360;39;114578;-58
2021/04/05 05:06:28;;;;;;;;;;;;;;;21.76;39.66;101155.19;2197006;39;116138;-59
2021/04/05 05:07:59;;;;;;;;;;;;;;;21.81;39.26;101151.44;2201466;39;114694;-58
2021/04/05 05:09:31;;;;;;;;;;;;;;;21.85;39.26;101150.50;2197176;39;116564;-57
2021/04/05 05:11:04;;;;;;;;;;;;;;;21.91;39.24;101166.13;2202034;39;114672;-56
2021/04/05 05:12:36;;;;;;;;;;;;;;;21.96;38.95;101153.97;2204058;39;114700;-59
2021/04/05 05:14:07;;;;;;;;;;;;;;;22.00;39.11;101174.72;2203939;39;115086;-56
2021/04/05 05:15:38;;;;;;;;;;;;;;;22.05;39.14;101174.59;2200020;39;115238;-55
2021/04/05 05:17:10;;;;;;;;;;;;;;;22.09;39.35;101181.28;2201634;39;115549;-57
2021/04/05 05:18:41;;;;;;;;;;;;;;;22.13;39.01;101187.94;2204132;39;117763;-57
2021/04/05 05:20:14;;;;;;;;;;;;;;;22.17;39.32;101197.41;2204391;39;114942;-56
2021/04/05 05:21:51;;;;;;;;;;;;;;;22.23;39.58;101196.19;2203658;39;115235;-59
2021/04/05 05:23:23;;;;;;;;;;;;;;;22.27;39.09;101216.91;2203559;39;116034;-61
2021/04/05 05:24:56;;;;;;;;;;;;;;;22.30;39.20;101210.69;2197503;39;115749;-57
2021/04/05 05:26:27;;;;;;;;;;;;;;;22.34;38.85;101206.09;2202922;39;115845;-58
2021/04/05 05:28:03;;;;;;;;;;;;;;;22.37;38.83;101219.53;2204427;39;116196;-58
2021/04/05 05:29:34;;;;;;;;;;;;;;;22.43;39.11;101220.25;2205039;39;115797;-58
2021/04/05 05:31:05;;;;;;;;;;;;;;;22.45;39.33;101229.19;2204242;39;115660;-58
2021/04/05 05:32:37;;;;;;;;;;;;;;;22.49;38.85;101241.50;2204103;39;115497;-59
2021/04/05 05:34:18;;;;;;;;;;;;;;;22.53;38.80;101234.13;2197808;39;115916;-58
2021/04/05 05:35:51;;;;;;;;;;;;;;;22.57;39.23;101226.69;2202765;39;114416;-58
2021/04/05 05:37:22;;;;;;;;;;;;;;;22.60;39.18;101226.06;2200236;39;115274;-57
2021/04/05 05:38:54;;;;;;;;;;;;;;;22.65;39.09;101242.00;2202268;39;113862;-56
2021/04/05 05:40:25;;;;;;;;;;;;;;;22.67;39.18;101232.09;2205080;39;113852;-57
2021/04/05 05:42:03;;;;;;;;;;;;;;;22.72;38.94;101236.81;2204662;39;113936;-58
2021/04/05 05:43:37;;;;;;;;;;;;;;;22.76;38.90;101249.13;2205093;39;113833;-57
2021/04/05 05:45:08;;;;;;;;;;;;;;;22.78;38.81;101252.44;2197621;39;113715;-58
2021/04/05 05:46:44;;;;;;;;;;;;;;;22.80;39.24;101242.53;2200229;39;113661;-59
2021/04/05 05:48:25;;;;;;;;;;;;;;;22.85;38.94;101233.16;2204922;39;113542;-58
2021/04/05 05:50:06;;;;;;;;;;;;;;;22.89;39.15;101231.34;2205100;39;114104;-57
2021/04/05 05:51:46;;;;;;;;;;;;;;;22.92;38.56;101227.88;2204783;39;113801;-59
2021/04/05 05:53:26;;;;;;;;;;;;;;;22.95;38.82;101238.50;2199005;39;113787;-56
2021/04/05 05:55:07;;;;;;;;;;;;;;;22.98;38.92;101230.28;2199416;39;113998;-57
2021/04/05 05:56:47;;;;;;;;;;;;;;;23.01;38.43;101228.81;2201621;39;113853;-59
2021/04/05 05:58:38;;;;;;;;;;;;;;;23.04;38.81;101245.91;2200964;39;114152;-57
2021/04/05 06:00:10;;;;;;;;;;;;;;;23.07;38.46;101244.44;2198761;39;115730;-58
2021/04/05 06:01:51;;;;;;;;;;;;;;;23.10;38.52;101226.88;2195841;39;115254;-59
2021/04/05 06:03:32;;;;;;;;;;;;;;;23.12;38.11;101221.78;2202013;39;114302;-58
2021/04/05 06:05:13;;;;;;;;;;;;;;;23.17;38.24;101232.09;2201537;39;115069;-59
2021/04/05 06:06:54;;;;;;;;;;;;;;;23.19;38.23;101238.22;2200868;39;114799;-58
2021/04/05 06:08:34;;;;;;;;;;;;;;;23.23;38.05;101230.78;2204761;39;114803;-58
2021/04/05 06:10:15;;;;;;;;;;;;;;;23.26;38.57;101228.16;2204373;39;114790;-57
2021/04/05 06:11:56;;;;;;;;;;;;;;;23.30;38.39;101239.66;2204366;39;114642;-57
2021/04/05 06:13:47;;;;;;;;;;;;;;;23.33;38.42;101241.81;2204780;39;114365;-58
2021/04/05 06:15:21;;;;;;;;;;;;;;;23.35;38.40;101240.34;2203999;39;114780;-59
2021/04/05 06:17:00;;;;;;;;;;;;;;;23.38;38.40;101236.91;2204715;39;114813;-57
2021/04/05 06:18:33;;;;;;;;;;;;;;;23.39;38.23;101232.91;2204079;39;114794;-57
2021/04/05 06:20:14;;;;;;;;;;;;;;;23.41;38.22;101227.78;2203154;39;114428;-57
2021/04/05 06:21:54;;;;;;;;;;;;;;;23.43;38.13;101239.59;2203573;39;115348;-59
2021/04/05 06:23:35;;;;;;;;;;;;;;;23.44;38.09;101240.44;2205163;39;114855;-58
2021/04/05 06:25:16;;;;;;;;;;;;;;;23.46;38.22;101236.16;2197739;39;115826;-56
2021/04/05 06:26:47;;;;;;;;;;;;;;;23.46;38.16;101244.59;2203291;39;115582;-58
2021/04/05 06:28:28;;;;;;;;;;;;;;;23.47;38.30;101240.66;2198019;39;115684;-59
2021/04/05 06:30:09;;;;;;;;;;;;;;;23.49;38.31;101243.13;2201281;39;116081;-57
2021/04/05 06:31:40;;;;;;;;;;;;;;;23.48;38.26;101245.09;2202741;39;115510;-59
2021/04/05 06:33:11;;;;;;;;;;;;;;;23.49;38.20;101246.78;2204270;39;115790;-59
2021/04/05 06:34:43;;;;;;;;;;;;;;;23.51;38.17;101251.28;2204800;39;115348;-57
2021/04/05 06:36:24;;;;;;;;;;;;;;;23.50;37.88;101247.63;2204679;39;115632;-56
2021/04/05 06:37:56;;;;;;;;;;;;;;;23.50;37.93;101253.25;2197668;39;115575;-58
2021/04/05 06:39:29;;;;;;;;;;;;;;;23.49;37.75;101260.88;2195847;39;117576;-57
2021/04/05 06:41:09;;;;;;;;;;;;;;;23.51;38.06;101268.19;2202744;39;115580;-59
2021/04/05 06:42:50;;;;;;;;;;;;;;;23.51;38.05;101274.66;2197695;39;115725;-57
2021/04/05 06:44:31;;;;;;;;;;;;;;;23.51;38.05;101279.47;2203021;39;117384;-58
2021/04/05 06:46:15;;;;;;;;;;;;;;;23.49;38.06;101271.31;2204809;39;115615;-58
2021/04/05 06:47:56;;;;;;;;;;;;;;;23.49;37.77;101293.88;2207125;39;116032;-59
2021/04/05 06:49:39;;;;;;;;;;;;;;;23.48;37.83;101280.97;2204896;39;113855;-59
2021/04/05 06:51:20;;;;;;;;;;;;;;;23.47;37.74;101285.78;2204774;39;113860;-59
2021/04/05 06:53:01;;;;;;;;;;;;;;;23.46;37.83;101295.38;2204477;39;113631;-58
2021/04/05 06:54:42;;;;;;;;;;;;;;;23.46;37.91;101298.19;2204518;39;113842;-58
2021/04/05 06:56:20;;;;;;;;;;;;;;;23.44;38.09;101300.50;2203526;39;114196;-58
2021/04/05 06:58:01;;;;;;;;;;;;;;;23.44;37.73;101308.94;2197512;39;113672;-59
2021/04/05 06:59:42;;;;;;;;;;;;;;;23.44;37.95;101299.66;2205008;39;113643;-58
2021/04/05 07:01:14;;;;;;;;;;;;;;;23.42;37.57;101305.59;2205152;39;114085;-57
2021/04/05 07:02:55;;;;;;;;;;;;;;;23.40;37.77;101299.44;2201183;39;114116;-59
2021/04/05 07:04:36;;;;;;;;;;;;;;;23.41;38.10;101303.09;2202388;39;113718;-58
2021/04/05 07:06:24;;;;;;;;;;;;;;;23.39;37.76;101303.41;2204558;39;114186;-59
2021/04/05 07:08:01;;;;;;;;;;;;;;;23.37;37.78;101308.53;2204661;39;113611;-58
2021/04/05 07:09:42;;;;;;;;;;;;;;;23.37;37.96;101316.16;2197347;39;113977;-59
2021/04/05 07:11:23;;;;;;;;;;;;;;;23.35;38.16;101313.66;2206670;39;114125;-59
2021/04/05 07:12:59;;;;;;;;;;;;;;;23.35;38.13;101318.47;2204938;39;115520;-59
2021/04/05 07:14:37;;;;;;;;;;;;;;;23.33;38.02;101320.78;2205712;39;115290;-56
2021/04/05 07:16:10;;;;;;;;;;;;;;;23.32;38.05;101310.66;2204931;39;114859;-57
2021/04/05 07:17:44;;;;;;;;;;;;;;;23.30;38.00;101325.09;2205608;39;114823;-58
2021/04/05 07:19:25;;;;;;;;;;;;;;;23.30;38.25;101324.25;2205003;39;114708;-56
2021/04/05 07:21:06;;;;;;;;;;;;;;;23.29;38.05;101331.03;2204184;39;113789;-56
2021/04/05 07:22:49;;;;;;;;;;;;;;;23.28;38.17;101332.19;2204143;39;115012;-57
2021/04/05 07:24:25;;;;;;;;;;;;;;;23.27;37.94;101350.22;2205469;39;115125;-57
2021/04/05 07:26:06;;;;;;;;;;;;;;;23.26;38.00;101348.59;2204441;39;116110;-59
2021/04/05 07:27:47;;;;;;;;;;;;;;;23.26;37.92;101359.88;2205596;39;115205;-59
2021/04/05 07:29:22;;;;;;;;;;;;;;;23.24;37.91;101348.06;2204729;39;114627;-57
2021/04/05 07:30:57;;;;;;;;;;;;;;;23.22;37.94;101376.56;2205237;39;116174;-57
2021/04/05 07:32:36;;;;;;;;;;;;;;;23.22;38.01;101356.00;2204765;39;115135;-56
2021/04/05 07:34:28;;;;;;;;;;;;;;;23.21;37.92;101366.47;2207467;39;115105;-56
2021/04/05 07:36:01;;;;;;;;;;;;;;;23.18;38.30;101361.44;2197302;39;115591;-57
2021/04/05 07:37:43;;;;;;;;;;;;;;;23.17;38.01;101362.56;2198310;39;116246;-58
2021/04/05 07:39:17;;;;;;;;;;;;;;;23.16;38.17;101374.19;2204574;39;115729;-58
2021/04/05 07:40:54;;;;;;;;;;;;;;;23.15;37.93;101375.34;2204333;39;115556;-57
2021/04/05 07:42:50;;;;;;;;;;;;;;;23.14;38.18;101374.50;2191689;39;115666;-58
2021/04/05 07:44:31;;;;;;;;;;;;;;;23.12;38.17;101387.25;2191181;39;114447;-57
2021/04/05 07:46:11;;;;;;;;;;;;;;;23.10;38.19;101375.44;2197919;39;114633;-57
2021/04/05 07:47:47;;;;;;;;;;;;;;;23.10;38.22;101379.09;2204726;39;116065;-56
2021/04/05 07:49:21;;;;;;;;;;;;;;;23.10;38.23;101369.81;2203929;39;115658;-56
2021/04/05 07:50:56;;;;;;;;;;;;;;;23.09;38.63;101373.78;2199116;39;116551;-58
2021/04/05 07:52:36;;;;;;;;;;;;;;;23.05;38.58;101382.88;2208470;39;115535;-57
2021/04/05 07:54:08;;;;;;;;;;;;;;;23.05;39.02;101391.31;2209184;39;116034;-56
2021/04/05 07:55:39;;;;;;;;;;;;;;;23.06;38.93;101406.25;2207436;39;115758;-58
2021/04/05 07:57:20;;;;;;;;;;;;;;;23.03;39.11;101406.88;2210568;39;116137;-57
2021/04/05 07:59:02;;;;;;;;;;;;;;;23.02;38.92;101408.03;2197360;39;114301;-58
2021/04/05 08:00:45;;;;;;;;;;;;;;;22.99;38.75;101412.28;2190637;39;114334;-59
2021/04/05 08:02:16;;;;;;;;;;;;;;;22.99;38.85;101419.91;2200434;39;114091;-59